Time;durP1;ratioP1;P1;durP2;ratioP2;P2;SDS_P1;SDS_P2;PMS_P1;PMS_P2;Temp;Humidity;BMP_temperature;BMP_pressure;BME280_temperature;BME280_humidity;BME280_pressure;Samples;Min_cycle;Max_cycle;Signal;HPM_P1;HPM_P2
2022/12/02 00:03:29;;;;;;;25.00;12.73;;;;;;;;;;8336193;28;20122;-63
2022/12/02 00:07:30;;;;;;;21.25;12.30;;;;;;;;;;8336454;28;20531;-64
2022/12/02 00:11:30;;;;;;;23.40;12.75;;;;;;;;;;8337089;28;20048;-63
2022/12/02 00:15:41;;;;;;;23.40;13.43;;;;;;;;;;8337038;28;20056;-64
2022/12/02 00:19:41;;;;;;;25.55;12.60;;;;;;;;;;8337431;28;20297;-63
2022/12/02 00:23:42;;;;;;;23.70;12.73;;;;;;;;;;8336729;28;20053;-63
2022/12/02 00:27:42;;;;;;;23.13;12.55;;;;;;;;;;8336055;28;20199;-63
2022/12/02 00:31:42;;;;;;;22.30;12.43;;;;;;;;;;8334539;28;20847;-63
2022/12/02 00:35:43;;;;;;;22.63;12.77;;;;;;;;;;8334373;28;20071;-63
2022/12/02 00:39:43;;;;;;;23.38;12.82;;;;;;;;;;8335778;28;20024;-64
2022/12/02 00:48:02;;;;;;;25.02;13.90;;;;;;;;;;8335278;28;20087;-64
2022/12/02 00:52:03;;;;;;;22.23;12.68;;;;;;;;;;8334353;28;20032;-64
2022/12/02 00:56:03;;;;;;;20.70;12.45;;;;;;;;;;8334887;28;20035;-63
2022/12/02 01:00:04;;;;;;;25.77;13.18;;;;;;;;;;8335272;28;20433;-64
2022/12/02 01:04:05;;;;;;;23.23;13.23;;;;;;;;;;8332951;28;20020;-63
2022/12/02 01:08:05;;;;;;;26.75;15.25;;;;;;;;;;8333799;28;20086;-64
2022/12/02 01:12:06;;;;;;;29.67;16.17;;;;;;;;;;8336172;28;20483;-63
2022/12/02 01:16:06;;;;;;;23.02;13.98;;;;;;;;;;8341348;28;20052;-63
2022/12/02 01:20:07;;;;;;;25.60;13.60;;;;;;;;;;8334246;28;20020;-63
2022/12/02 01:24:07;;;;;;;27.70;13.63;;;;;;;;;;8335541;28;20147;-63
2022/12/02 01:28:08;;;;;;;25.27;13.73;;;;;;;;;;8334150;28;20488;-63
2022/12/02 01:32:08;;;;;;;24.88;13.70;;;;;;;;;;8334914;28;20039;-64
2022/12/02 01:36:08;;;;;;;24.27;12.93;;;;;;;;;;8336996;28;20031;-64
2022/12/02 01:40:09;;;;;;;25.90;14.10;;;;;;;;;;8336701;28;20162;-63
2022/12/02 01:44:09;;;;;;;24.05;13.02;;;;;;;;;;8331804;28;20060;-63
2022/12/02 01:48:10;;;;;;;22.35;12.65;;;;;;;;;;8335473;28;20041;-63
2022/12/02 01:52:10;;;;;;;21.77;11.95;;;;;;;;;;8335729;28;20571;-64
2022/12/02 01:56:10;;;;;;;26.50;13.68;;;;;;;;;;8336524;28;20028;-64
2022/12/02 02:00:11;;;;;;;26.73;13.27;;;;;;;;;;8335113;28;21066;-63
2022/12/02 02:04:12;;;;;;;24.52;13.13;;;;;;;;;;8336995;28;20020;-63
2022/12/02 02:08:12;;;;;;;23.95;13.60;;;;;;;;;;8340064;28;20021;-63
2022/12/02 02:12:12;;;;;;;25.88;13.75;;;;;;;;;;8340941;28;20263;-63
2022/12/02 02:16:13;;;;;;;23.75;12.88;;;;;;;;;;8338821;28;20040;-63
2022/12/02 02:20:16;;;;;;;26.00;13.63;;;;;;;;;;8340043;28;20050;-63
2022/12/02 02:24:16;;;;;;;24.75;13.60;;;;;;;;;;8339193;28;21103;-63
2022/12/02 02:28:17;;;;;;;23.70;13.88;;;;;;;;;;8340638;28;20230;-65
2022/12/02 02:32:17;;;;;;;26.45;15.00;;;;;;;;;;8341178;28;20048;-64
2022/12/02 02:36:17;;;;;;;26.52;14.13;;;;;;;;;;8339784;28;20828;-63
2022/12/02 02:40:18;;;;;;;23.73;14.52;;;;;;;;;;8339212;28;20440;-64
2022/12/02 02:44:19;;;;;;;25.13;13.88;;;;;;;;;;8347721;28;20028;-63
2022/12/02 02:48:20;;;;;;;29.35;15.23;;;;;;;;;;8338894;28;20047;-62
2022/12/02 02:52:21;;;;;;;27.65;14.23;;;;;;;;;;8338109;28;20021;-63
2022/12/02 02:56:21;;;;;;;29.00;14.73;;;;;;;;;;8338375;28;20725;-63
2022/12/02 03:00:21;;;;;;;27.58;14.52;;;;;;;;;;8336880;28;20024;-63
2022/12/02 03:04:23;;;;;;;30.00;15.52;;;;;;;;;;8336508;28;20036;-62
2022/12/02 03:08:24;;;;;;;28.40;15.65;;;;;;;;;;8338788;28;20536;-62
2022/12/02 03:12:25;;;;;;;28.55;15.43;;;;;;;;;;8339924;28;20788;-63
2022/12/02 03:16:25;;;;;;;27.85;14.68;;;;;;;;;;8337524;28;20044;-63
2022/12/02 03:20:26;;;;;;;29.92;14.70;;;;;;;;;;8335237;28;20028;-62
2022/12/02 03:24:27;;;;;;;30.90;15.57;;;;;;;;;;8339785;28;20646;-63
2022/12/02 03:28:27;;;;;;;27.88;14.57;;;;;;;;;;8339702;28;20735;-63
2022/12/02 03:32:27;;;;;;;24.90;13.88;;;;;;;;;;8338149;28;20045;-63
2022/12/02 03:36:28;;;;;;;24.52;13.52;;;;;;;;;;8336005;28;20028;-63
2022/12/02 03:40:28;;;;;;;31.80;15.77;;;;;;;;;;8339235;28;20490;-63
2022/12/02 03:44:28;;;;;;;30.38;14.60;;;;;;;;;;8337666;28;20037;-63
2022/12/02 03:48:29;;;;;;;29.92;14.57;;;;;;;;;;8339429;28;20037;-62
2022/12/02 03:52:29;;;;;;;33.20;15.63;;;;;;;;;;8337470;28;20165;-63
2022/12/02 03:56:34;;;;;;;27.50;14.63;;;;;;;;;;8336096;28;20655;-63
2022/12/02 04:00:35;;;;;;;27.52;14.27;;;;;;;;;;8333669;28;20256;-61
2022/12/02 04:04:35;;;;;;;29.85;15.45;;;;;;;;;;8335879;28;20498;-62
2022/12/02 04:08:37;;;;;;;27.55;15.38;;;;;;;;;;8334384;28;20035;-62
2022/12/02 04:12:37;;;;;;;28.85;14.77;;;;;;;;;;8334579;28;20025;-63
2022/12/02 04:16:37;;;;;;;27.33;15.20;;;;;;;;;;8331839;28;20409;-63
2022/12/02 04:20:37;;;;;;;27.10;14.07;;;;;;;;;;8338352;28;20024;-63
2022/12/02 04:24:37;;;;;;;26.20;15.00;;;;;;;;;;8335027;28;20063;-63
2022/12/02 04:28:38;;;;;;;31.08;15.40;;;;;;;;;;8334653;28;20028;-63
2022/12/02 04:32:38;;;;;;;32.53;15.50;;;;;;;;;;8335099;28;20274;-62
2022/12/02 04:36:38;;;;;;;27.27;15.40;;;;;;;;;;8337394;28;20025;-63
2022/12/02 04:40:39;;;;;;;29.52;15.77;;;;;;;;;;8338577;28;20028;-64
2022/12/02 04:44:39;;;;;;;26.58;14.85;;;;;;;;;;8337871;28;20362;-67
2022/12/02 04:48:39;;;;;;;26.23;14.25;;;;;;;;;;8334628;28;20332;-63
2022/12/02 04:52:39;;;;;;;32.15;16.10;;;;;;;;;;8335914;28;20152;-63
2022/12/02 04:56:39;;;;;;;29.85;15.27;;;;;;;;;;8336582;28;20028;-63
2022/12/02 05:00:40;;;;;;;31.17;15.85;;;;;;;;;;8335003;28;20040;-64
2022/12/02 05:04:40;;;;;;;33.55;16.45;;;;;;;;;;8333873;28;20504;-63
2022/12/02 05:08:40;;;;;;;28.17;13.97;;;;;;;;;;8336238;28;20063;-63
2022/12/02 05:12:40;;;;;;;28.20;14.60;;;;;;;;;;8334154;28;20276;-63
2022/12/02 05:16:41;;;;;;;29.20;15.43;;;;;;;;;;8335722;28;20051;-63
2022/12/02 05:20:41;;;;;;;30.92;14.98;;;;;;;;;;8335585;28;20590;-63
2022/12/02 05:24:41;;;;;;;28.88;14.18;;;;;;;;;;8335050;28;20028;-64
2022/12/02 05:28:41;;;;;;;27.48;15.13;;;;;;;;;;8338214;28;20025;-64
2022/12/02 05:32:42;;;;;;;27.38;14.93;;;;;;;;;;8334474;28;20037;-63
2022/12/02 05:36:42;;;;;;;28.90;14.57;;;;;;;;;;8335246;28;20278;-63
2022/12/02 05:40:42;;;;;;;29.20;14.43;;;;;;;;;;8341592;28;20025;-63
2022/12/02 05:44:43;;;;;;;25.43;12.87;;;;;;;;;;8339399;28;20029;-63
2022/12/02 05:48:44;;;;;;;28.48;14.60;;;;;;;;;;8342886;28;20367;-63
2022/12/02 05:52:44;;;;;;;28.63;14.90;;;;;;;;;;8341259;28;20032;-64
2022/12/02 05:56:44;;;;;;;29.08;15.35;;;;;;;;;;8341124;28;20025;-63
2022/12/02 06:00:47;;;;;;;27.27;14.18;;;;;;;;;;8339082;28;20600;-63
2022/12/02 06:04:48;;;;;;;31.83;16.73;;;;;;;;;;8340707;28;20039;-63
2022/12/02 06:08:48;;;;;;;29.80;14.93;;;;;;;;;;8339097;28;20942;-63
2022/12/02 06:12:49;;;;;;;35.72;15.52;;;;;;;;;;8339643;28;20582;-63
2022/12/02 06:17:00;;;;;;;29.63;15.50;;;;;;;;;;8339449;28;20040;-63
2022/12/02 06:21:02;;;;;;;29.23;15.95;;;;;;;;;;8337425;28;20490;-63
2022/12/02 06:25:04;;;;;;;31.25;15.20;;;;;;;;;;8339377;28;20341;-63
2022/12/02 06:29:05;;;;;;;31.63;16.33;;;;;;;;;;8341847;28;20017;-64
2022/12/02 06:33:11;;;;;;;32.45;16.42;;;;;;;;;;8336376;28;20036;-63
2022/12/02 06:37:17;;;;;;;32.15;15.80;;;;;;;;;;8337335;28;20362;-64
2022/12/02 06:41:25;;;;;;;34.55;16.42;;;;;;;;;;8340115;28;20056;-63
2022/12/02 06:45:25;;;;;;;30.63;16.27;;;;;;;;;;8338163;28;20045;-63
2022/12/02 06:49:29;;;;;;;30.42;14.85;;;;;;;;;;8339714;28;20801;-64
2022/12/02 06:53:40;;;;;;;31.42;16.42;;;;;;;;;;8338906;28;20041;-63
2022/12/02 06:57:40;;;;;;;30.85;15.63;;;;;;;;;;8333304;28;20390;-63
2022/12/02 07:01:44;;;;;;;33.35;16.27;;;;;;;;;;8337590;28;20147;-63
2022/12/02 07:05:44;;;;;;;28.50;14.93;;;;;;;;;;8338858;28;20067;-63
2022/12/02 07:09:45;;;;;;;31.58;15.18;;;;;;;;;;8339197;28;20528;-63
2022/12/02 07:13:47;;;;;;;33.65;16.80;;;;;;;;;;8340619;28;20489;-63
2022/12/02 07:17:47;;;;;;;35.03;16.48;;;;;;;;;;8335227;28;20039;-64
2022/12/02 07:21:48;;;;;;;32.38;16.30;;;;;;;;;;8340285;28;20044;-63
2022/12/02 07:25:55;;;;;;;35.13;17.05;;;;;;;;;;8339717;28;20036;-63
2022/12/02 07:29:56;;;;;;;31.13;15.82;;;;;;;;;;8339571;28;20039;-63
2022/12/02 07:33:56;;;;;;;30.88;16.35;;;;;;;;;;8339268;28;20048;-63
2022/12/02 07:37:57;;;;;;;35.10;17.08;;;;;;;;;;8338699;28;20020;-63
2022/12/02 07:41:57;;;;;;;38.13;16.55;;;;;;;;;;8338472;28;20032;-64
2022/12/02 07:45:57;;;;;;;35.87;17.10;;;;;;;;;;8338297;28;20035;-64
2022/12/02 07:49:58;;;;;;;34.15;16.85;;;;;;;;;;8338561;28;20272;-63
2022/12/02 07:53:58;;;;;;;37.63;17.95;;;;;;;;;;8338393;28;20034;-64
2022/12/02 07:57:58;;;;;;;35.00;17.63;;;;;;;;;;8337650;28;20032;-64
2022/12/02 08:01:58;;;;;;;35.17;17.20;;;;;;;;;;8338967;28;20032;-64
2022/12/02 08:05:59;;;;;;;35.53;17.30;;;;;;;;;;8336386;28;20039;-63
2022/12/02 08:09:59;;;;;;;38.50;18.60;;;;;;;;;;8341878;28;20020;-64
2022/12/02 08:13:59;;;;;;;34.03;16.92;;;;;;;;;;8325644;28;20063;-63
2022/12/02 08:17:59;;;;;;;41.42;18.45;;;;;;;;;;8330287;28;20730;-64
2022/12/02 08:21:59;;;;;;;44.90;18.38;;;;;;;;;;8338093;28;20271;-63
2022/12/02 08:26:00;;;;;;;43.38;19.15;;;;;;;;;;8339884;28;20020;-63
2022/12/02 08:30:00;;;;;;;34.53;16.67;;;;;;;;;;8337037;28;20090;-63
2022/12/02 08:34:00;;;;;;;41.15;17.52;;;;;;;;;;8334303;28;20044;-64
2022/12/02 08:38:02;;;;;;;39.35;18.17;;;;;;;;;;8337958;28;20078;-68
2022/12/02 08:42:02;;;;;;;34.65;16.17;;;;;;;;;;8337019;28;20025;-64
2022/12/02 08:46:02;;;;;;;31.38;16.23;;;;;;;;;;8332940;28;20667;-64
2022/12/02 08:50:03;;;;;;;31.15;15.38;;;;;;;;;;8337080;28;20449;-63
2022/12/02 08:54:04;;;;;;;35.45;16.40;;;;;;;;;;8336828;28;20085;-64
2022/12/02 08:58:04;;;;;;;34.17;17.52;;;;;;;;;;8337064;28;20037;-64
2022/12/02 09:02:04;;;;;;;32.90;15.82;;;;;;;;;;8333528;28;20060;-63
2022/12/02 09:06:04;;;;;;;33.78;16.42;;;;;;;;;;8335196;28;20058;-63
2022/12/02 09:10:05;;;;;;;29.17;15.67;;;;;;;;;;8337045;28;20792;-64
2022/12/02 09:14:07;;;;;;;34.03;15.77;;;;;;;;;;8339176;28;20294;-63
2022/12/02 09:18:07;;;;;;;35.33;15.55;;;;;;;;;;8343101;28;20106;-64
2022/12/02 09:22:07;;;;;;;34.08;16.80;;;;;;;;;;8344517;28;20025;-64
2022/12/02 09:26:07;;;;;;;36.90;17.30;;;;;;;;;;8342696;28;20059;-63
2022/12/02 09:30:08;;;;;;;35.00;15.88;;;;;;;;;;8338761;28;20388;-64
2022/12/02 09:34:08;;;;;;;31.98;15.52;;;;;;;;;;8341827;28;20029;-65
2022/12/02 09:38:08;;;;;;;29.73;15.13;;;;;;;;;;8341941;28;20082;-64
2022/12/02 09:42:10;;;;;;;28.83;15.10;;;;;;;;;;8340199;28;20035;-63
2022/12/02 09:46:10;;;;;;;32.47;15.85;;;;;;;;;;8338602;28;20266;-64
2022/12/02 09:50:12;;;;;;;31.80;15.63;;;;;;;;;;8340054;28;20076;-63
2022/12/02 09:54:14;;;;;;;30.63;15.15;;;;;;;;;;8344547;28;20033;-63
2022/12/02 09:58:20;;;;;;;29.30;15.00;;;;;;;;;;8338889;28;20074;-64
2022/12/02 10:02:23;;;;;;;29.30;15.13;;;;;;;;;;8341807;28;20040;-63
2022/12/02 10:06:26;;;;;;;27.83;14.65;;;;;;;;;;8341318;28;20025;-64
2022/12/02 10:10:28;;;;;;;26.30;14.00;;;;;;;;;;8338660;28;20036;-64
2022/12/02 10:14:28;;;;;;;27.90;14.60;;;;;;;;;;8333244;28;20105;-64
2022/12/02 10:18:29;;;;;;;25.88;13.98;;;;;;;;;;8332193;28;20037;-64
2022/12/02 10:22:30;;;;;;;24.92;13.50;;;;;;;;;;8332414;28;20017;-65
2022/12/02 10:26:42;;;;;;;23.52;12.07;;;;;;;;;;8333992;28;20475;-64
2022/12/02 10:30:47;;;;;;;22.27;11.85;;;;;;;;;;8336491;28;20459;-63
2022/12/02 10:35:00;;;;;;;21.45;11.05;;;;;;;;;;8332171;28;20405;-64
2022/12/02 10:39:31;;;;;;;21.38;11.48;;;;;;;;;;8337236;28;20025;-63
2022/12/02 10:43:32;;;;;;;25.50;10.63;;;;;;;;;;8323013;28;20048;-64
2022/12/02 10:47:32;;;;;;;43.55;9.52;;;;;;;;;;8334031;28;20453;-63
2022/12/02 10:51:33;;;;;;;28.45;10.10;;;;;;;;;;8333903;28;20043;-63
2022/12/02 10:55:33;;;;;;;20.85;9.50;;;;;;;;;;8334237;28;20036;-63
2022/12/02 10:59:35;;;;;;;54.07;9.60;;;;;;;;;;8332746;28;20526;-64
2022/12/02 11:03:35;;;;;;;39.80;8.93;;;;;;;;;;8333709;28;20294;-63
2022/12/02 11:07:35;;;;;;;47.92;9.50;;;;;;;;;;8334121;28;20060;-63
2022/12/02 11:11:38;;;;;;;41.28;8.23;;;;;;;;;;8335617;28;20132;-64
2022/12/02 11:15:41;;;;;;;26.27;8.13;;;;;;;;;;8330582;28;20471;-63
2022/12/02 11:19:44;;;;;;;63.15;9.27;;;;;;;;;;8327290;28;20206;-63
2022/12/02 11:23:46;;;;;;;99.03;9.75;;;;;;;;;;8331952;28;20021;-62
2022/12/02 11:28:06;;;;;;;31.23;7.10;;;;;;;;;;8331068;28;20342;-63
2022/12/02 11:32:17;;;;;;;48.92;7.65;;;;;;;;;;8331993;28;20596;-63
2022/12/02 11:36:20;;;;;;;117.20;9.38;;;;;;;;;;8333912;28;20026;-63
2022/12/02 11:40:21;;;;;;;12.18;7.68;;;;;;;;;;8334320;28;20020;-64
2022/12/02 11:44:26;;;;;;;11.07;7.38;;;;;;;;;;8336291;28;20024;-64
2022/12/02 11:48:26;;;;;;;11.80;7.43;;;;;;;;;;8332176;28;20109;-63
2022/12/02 11:52:27;;;;;;;11.07;7.65;;;;;;;;;;8328253;28;20420;-64
2022/12/02 11:56:31;;;;;;;16.33;7.90;;;;;;;;;;8329304;28;20033;-64
2022/12/02 12:00:33;;;;;;;12.00;7.80;;;;;;;;;;8331325;28;20402;-63
2022/12/02 12:04:33;;;;;;;20.90;7.82;;;;;;;;;;8334638;28;20035;-64
2022/12/02 12:08:33;;;;;;;15.82;7.55;;;;;;;;;;8333309;28;20124;-64
2022/12/02 12:12:34;;;;;;;11.52;8.15;;;;;;;;;;8333900;28;20374;-63
2022/12/02 12:16:35;;;;;;;15.10;7.13;;;;;;;;;;8331272;28;20049;-63
2022/12/02 12:20:35;;;;;;;16.80;8.32;;;;;;;;;;8332076;28;20616;-63
2022/12/02 12:24:35;;;;;;;36.50;8.47;;;;;;;;;;8332090;28;20021;-63
2022/12/02 12:28:36;;;;;;;15.65;9.48;;;;;;;;;;8331523;28;20626;-64
2022/12/02 12:32:36;;;;;;;14.13;9.05;;;;;;;;;;8329860;28;20504;-63
2022/12/02 12:36:37;;;;;;;12.18;8.35;;;;;;;;;;8325426;28;20486;-62
2022/12/02 12:40:37;;;;;;;12.95;8.68;;;;;;;;;;8332274;28;20029;-63
2022/12/02 12:44:37;;;;;;;12.00;8.52;;;;;;;;;;8329123;28;20104;-63
2022/12/02 12:48:38;;;;;;;11.45;7.95;;;;;;;;;;8329200;28;20044;-62
2022/12/02 12:52:38;;;;;;;11.38;8.13;;;;;;;;;;8329227;28;20474;-62
2022/12/02 12:56:38;;;;;;;12.50;8.68;;;;;;;;;;8330322;28;20043;-63
2022/12/02 13:00:38;;;;;;;13.10;8.93;;;;;;;;;;8328797;28;20028;-64
2022/12/02 13:04:38;;;;;;;13.68;9.15;;;;;;;;;;8331059;28;20111;-63
2022/12/02 13:08:38;;;;;;;11.55;8.25;;;;;;;;;;8331276;28;20132;-63
2022/12/02 13:12:39;;;;;;;13.57;8.70;;;;;;;;;;8330425;28;20761;-63
2022/12/02 13:16:39;;;;;;;13.80;8.88;;;;;;;;;;8330174;28;20171;-63
2022/12/02 13:20:39;;;;;;;13.50;8.63;;;;;;;;;;8330886;28;20048;-64
2022/12/02 13:24:40;;;;;;;11.43;8.20;;;;;;;;;;8328670;28;20364;-63
2022/12/02 13:28:40;;;;;;;11.68;8.35;;;;;;;;;;8329780;28;20675;-63
2022/12/02 13:32:40;;;;;;;14.13;9.38;;;;;;;;;;8329536;28;20531;-62
2022/12/02 13:36:41;;;;;;;14.75;8.88;;;;;;;;;;8329786;28;20712;-63
2022/12/02 13:40:41;;;;;;;13.90;8.50;;;;;;;;;;8330215;28;20107;-64
2022/12/02 13:44:41;;;;;;;18.20;9.30;;;;;;;;;;8328077;28;20025;-63
2022/12/02 13:48:41;;;;;;;13.90;9.52;;;;;;;;;;8330800;28;20028;-64
2022/12/02 13:52:41;;;;;;;12.80;9.00;;;;;;;;;;8331163;28;20369;-63
2022/12/02 13:56:42;;;;;;;14.55;9.55;;;;;;;;;;8330253;28;20275;-64
2022/12/02 14:00:42;;;;;;;16.00;9.52;;;;;;;;;;8334134;28;20099;-64
2022/12/02 14:04:42;;;;;;;14.45;9.55;;;;;;;;;;8336507;28;20257;-64
2022/12/02 14:08:42;;;;;;;12.10;8.38;;;;;;;;;;8336667;28;20802;-64
2022/12/02 14:12:42;;;;;;;17.88;9.95;;;;;;;;;;8336229;28;20025;-64
2022/12/02 14:16:45;;;;;;;22.20;9.57;;;;;;;;;;8336868;28;20044;-64
2022/12/02 14:20:45;;;;;;;19.92;8.75;;;;;;;;;;8336533;28;20025;-64
2022/12/02 14:24:45;;;;;;;14.47;9.73;;;;;;;;;;8336353;28;20274;-65
2022/12/02 14:28:45;;;;;;;20.35;9.25;;;;;;;;;;8337072;28;20728;-64
2022/12/02 14:32:46;;;;;;;54.72;10.02;;;;;;;;;;8336148;28;20032;-63
2022/12/02 14:36:46;;;;;;;31.23;9.45;;;;;;;;;;8335845;28;20032;-63
2022/12/02 14:40:46;;;;;;;19.40;9.27;;;;;;;;;;8336192;28;20032;-64
2022/12/02 14:44:46;;;;;;;11.88;9.07;;;;;;;;;;8333149;28;20048;-62
2022/12/02 14:48:46;;;;;;;13.27;9.02;;;;;;;;;;8331569;28;20041;-62
2022/12/02 14:52:47;;;;;;;12.75;8.25;;;;;;;;;;8331426;28;20036;-64
2022/12/02 14:56:47;;;;;;;23.20;8.88;;;;;;;;;;8331724;28;20559;-62
2022/12/02 15:00:47;;;;;;;86.75;10.35;;;;;;;;;;8329501;28;20028;-63
2022/12/02 15:04:47;;;;;;;18.35;8.57;;;;;;;;;;8331624;28;20769;-63
2022/12/02 15:08:47;;;;;;;12.53;8.27;;;;;;;;;;8332005;28;20036;-63
2022/12/02 15:12:48;;;;;;;25.65;9.68;;;;;;;;;;8339559;28;20294;-63
2022/12/02 15:16:48;;;;;;;17.10;8.95;;;;;;;;;;8335792;28;20044;-63
2022/12/02 15:20:48;;;;;;;40.00;9.77;;;;;;;;;;8336719;28;20119;-64
2022/12/02 15:24:49;;;;;;;70.63;10.18;;;;;;;;;;8336545;28;20056;-64
2022/12/02 15:28:50;;;;;;;48.55;10.27;;;;;;;;;;8336248;28;20107;-64
2022/12/02 15:32:50;;;;;;;50.50;9.90;;;;;;;;;;8335943;28;20074;-64
2022/12/02 15:36:50;;;;;;;43.25;10.18;;;;;;;;;;8336555;28;20155;-64
2022/12/02 15:40:51;;;;;;;49.88;10.18;;;;;;;;;;8336058;28;20053;-64
2022/12/02 15:44:51;;;;;;;21.13;9.30;;;;;;;;;;8336334;28;20110;-63
2022/12/02 15:48:51;;;;;;;96.03;10.85;;;;;;;;;;8334548;28;20045;-64
2022/12/02 15:52:51;;;;;;;69.72;10.48;;;;;;;;;;8335691;28;20060;-63
2022/12/02 15:56:51;;;;;;;71.47;10.77;;;;;;;;;;8337579;28;20568;-64
2022/12/02 16:00:51;;;;;;;55.40;10.45;;;;;;;;;;8334017;28;20502;-63
2022/12/02 16:04:52;;;;;;;41.33;9.68;;;;;;;;;;8333882;28;20546;-63
2022/12/02 16:08:52;;;;;;;137.02;12.85;;;;;;;;;;8335274;28;20032;-63
2022/12/02 16:12:52;;;;;;;54.97;11.90;;;;;;;;;;8334810;28;20029;-64
2022/12/02 16:16:52;;;;;;;17.30;10.27;;;;;;;;;;8334445;28;20859;-64
2022/12/02 16:20:53;;;;;;;16.20;10.68;;;;;;;;;;8335324;28;20766;-64
2022/12/02 16:24:53;;;;;;;14.63;10.07;;;;;;;;;;8335503;28;21038;-65
2022/12/02 16:28:53;;;;;;;15.10;10.40;;;;;;;;;;8334041;28;20021;-64
2022/12/02 16:32:53;;;;;;;19.92;9.90;;;;;;;;;;8333306;28;20047;-64
2022/12/02 16:36:54;;;;;;;56.40;11.87;;;;;;;;;;8334629;28;20339;-63
2022/12/02 16:40:54;;;;;;;16.08;10.70;;;;;;;;;;8331031;28;20283;-65
2022/12/02 16:44:54;;;;;;;17.38;11.13;;;;;;;;;;8334449;28;20723;-64
2022/12/02 16:48:54;;;;;;;15.93;10.25;;;;;;;;;;8332230;28;20105;-63
2022/12/02 16:52:54;;;;;;;21.63;10.60;;;;;;;;;;8333879;28;20093;-64
2022/12/02 16:56:55;;;;;;;15.13;10.43;;;;;;;;;;8334181;28;20555;-64
2022/12/02 17:00:55;;;;;;;15.18;10.63;;;;;;;;;;8337738;28;20677;-64
2022/12/02 17:04:55;;;;;;;16.13;10.73;;;;;;;;;;8334851;28;20398;-63
2022/12/02 17:08:55;;;;;;;15.43;9.80;;;;;;;;;;8336812;28;20301;-64
2022/12/02 17:12:55;;;;;;;13.73;9.57;;;;;;;;;;8334759;28;20486;-64
2022/12/02 17:16:56;;;;;;;14.20;9.77;;;;;;;;;;8331720;28;20508;-64
2022/12/02 17:20:56;;;;;;;14.17;9.87;;;;;;;;;;8333545;28;20031;-63
2022/12/02 17:24:56;;;;;;;14.20;9.88;;;;;;;;;;8333482;28;20278;-63
2022/12/02 17:28:56;;;;;;;14.02;9.45;;;;;;;;;;8334852;28;20127;-63
2022/12/02 17:32:56;;;;;;;18.08;9.82;;;;;;;;;;8333068;28;20750;-64
2022/12/02 17:36:57;;;;;;;15.27;9.80;;;;;;;;;;8341494;28;20033;-63
2022/12/02 17:41:09;;;;;;;13.73;9.35;;;;;;;;;;8342634;28;20345;-63
2022/12/02 17:45:09;;;;;;;11.18;8.43;;;;;;;;;;8341872;28;20105;-64
2022/12/02 17:49:10;;;;;;;14.63;9.27;;;;;;;;;;8340390;28;20025;-64
2022/12/02 17:53:10;;;;;;;13.48;9.45;;;;;;;;;;8344631;28;20984;-64
2022/12/02 17:57:10;;;;;;;12.57;9.05;;;;;;;;;;8347322;28;20030;-63
2022/12/02 18:01:10;;;;;;;15.10;9.18;;;;;;;;;;8341292;28;20036;-63
2022/12/02 18:05:11;;;;;;;13.75;10.13;;;;;;;;;;8341068;28;20091;-64
2022/12/02 18:09:11;;;;;;;11.85;8.88;;;;;;;;;;8341773;28;20032;-63
2022/12/02 18:13:11;;;;;;;13.00;9.35;;;;;;;;;;8342288;28;20023;-63
2022/12/02 18:17:11;;;;;;;13.15;9.25;;;;;;;;;;8342265;28;20044;-64
2022/12/02 18:21:12;;;;;;;11.18;8.35;;;;;;;;;;8343404;28;20813;-64
2022/12/02 18:25:12;;;;;;;12.77;9.40;;;;;;;;;;8342402;28;20512;-64
2022/12/02 18:29:12;;;;;;;11.47;8.97;;;;;;;;;;8342176;28;20021;-64
2022/12/02 18:33:12;;;;;;;13.80;8.93;;;;;;;;;;8339441;28;20274;-63
2022/12/02 18:37:12;;;;;;;13.30;9.13;;;;;;;;;;8339217;28;20119;-63
2022/12/02 18:41:13;;;;;;;14.55;8.20;;;;;;;;;;8341271;28;21086;-63
2022/12/02 18:45:13;;;;;;;10.70;7.95;;;;;;;;;;8339263;28;20099;-64
2022/12/02 18:49:13;;;;;;;12.48;8.75;;;;;;;;;;8340352;28;20051;-64
2022/12/02 18:53:13;;;;;;;10.70;8.05;;;;;;;;;;8340970;28;20029;-64
2022/12/02 18:57:14;;;;;;;11.30;8.05;;;;;;;;;;8340315;28;20029;-63
2022/12/02 19:01:14;;;;;;;13.98;8.73;;;;;;;;;;8341545;28;20036;-63
2022/12/02 19:05:14;;;;;;;11.77;8.07;;;;;;;;;;8340841;28;20032;-63
2022/12/02 19:09:14;;;;;;;12.30;7.90;;;;;;;;;;8339026;28;20012;-64
2022/12/02 19:13:14;;;;;;;13.35;8.63;;;;;;;;;;8342771;28;20275;-63
2022/12/02 19:17:15;;;;;;;10.18;7.60;;;;;;;;;;8341112;28;20361;-63
2022/12/02 19:21:15;;;;;;;9.85;7.90;;;;;;;;;;8341099;28;20477;-65
2022/12/02 19:25:15;;;;;;;12.55;8.30;;;;;;;;;;8340624;28;20488;-64
2022/12/02 19:29:16;;;;;;;11.25;8.02;;;;;;;;;;8340117;28;20808;-64
2022/12/02 19:33:16;;;;;;;11.43;6.93;;;;;;;;;;8337564;28;20036;-63
2022/12/02 19:37:16;;;;;;;10.90;7.35;;;;;;;;;;8339430;28;20053;-64
2022/12/02 19:41:16;;;;;;;11.38;7.70;;;;;;;;;;8337908;28;20277;-63
2022/12/02 19:45:16;;;;;;;12.10;8.45;;;;;;;;;;8338566;28;20024;-63
2022/12/02 19:49:17;;;;;;;11.18;7.47;;;;;;;;;;8338449;28;20036;-64
2022/12/02 19:53:17;;;;;;;10.98;7.18;;;;;;;;;;8337942;28;20139;-64
2022/12/02 19:57:17;;;;;;;10.38;7.15;;;;;;;;;;8339950;28;20047;-64
2022/12/02 20:01:17;;;;;;;10.18;7.55;;;;;;;;;;8335692;28;20539;-64
2022/12/02 20:05:20;;;;;;;14.32;8.25;;;;;;;;;;8338951;28;20157;-64
2022/12/02 20:09:21;;;;;;;13.73;7.75;;;;;;;;;;8340682;28;20271;-64
2022/12/02 20:13:21;;;;;;;13.73;7.97;;;;;;;;;;8339619;28;20029;-64
2022/12/02 20:17:21;;;;;;;10.32;7.13;;;;;;;;;;8337579;28;20097;-64
2022/12/02 20:21:22;;;;;;;9.40;6.85;;;;;;;;;;8338550;28;20464;-63
2022/12/02 20:25:22;;;;;;;9.40;7.05;;;;;;;;;;8338770;28;20513;-63
2022/12/02 20:29:22;;;;;;;9.95;7.10;;;;;;;;;;8338613;28;20032;-64
2022/12/02 20:33:22;;;;;;;9.98;7.50;;;;;;;;;;8331519;28;20041;-64
2022/12/02 20:37:24;;;;;;;10.77;7.40;;;;;;;;;;8334068;28;20079;-64
2022/12/02 20:41:24;;;;;;;11.07;7.97;;;;;;;;;;8334015;28;20024;-64
2022/12/02 20:45:24;;;;;;;14.30;7.72;;;;;;;;;;8332214;28;20331;-64
2022/12/02 20:49:24;;;;;;;11.07;7.97;;;;;;;;;;8333506;28;20439;-63
2022/12/02 20:53:25;;;;;;;10.82;7.70;;;;;;;;;;8334192;28;20077;-64
2022/12/02 20:57:25;;;;;;;15.07;7.57;;;;;;;;;;8334382;28;20028;-64
2022/12/02 21:01:25;;;;;;;12.25;8.57;;;;;;;;;;8332402;28;20037;-64
2022/12/02 21:05:25;;;;;;;10.17;7.57;;;;;;;;;;8333610;28;20037;-63
2022/12/02 21:09:26;;;;;;;12.95;8.05;;;;;;;;;;8332428;28;20294;-64
2022/12/02 21:13:26;;;;;;;10.95;7.85;;;;;;;;;;8334635;28;20020;-63
2022/12/02 21:17:29;;;;;;;29.13;7.97;;;;;;;;;;8335383;28;20069;-64
2022/12/02 21:21:29;;;;;;;14.63;7.30;;;;;;;;;;8334170;28;20021;-64
2022/12/02 21:25:30;;;;;;;13.95;8.07;;;;;;;;;;8337321;28;20029;-64
2022/12/02 21:29:30;;;;;;;13.00;7.82;;;;;;;;;;8333941;28;20017;-64
2022/12/02 21:33:30;;;;;;;14.35;7.75;;;;;;;;;;8330760;28;20047;-64
2022/12/02 21:37:30;;;;;;;9.57;6.75;;;;;;;;;;8331210;28;20050;-64
2022/12/02 21:41:31;;;;;;;19.55;7.45;;;;;;;;;;8333221;28;20028;-64
2022/12/02 21:45:32;;;;;;;12.50;7.97;;;;;;;;;;8331468;28;20152;-64
2022/12/02 21:49:32;;;;;;;37.50;8.25;;;;;;;;;;8341976;28;20052;-64
2022/12/02 21:53:33;;;;;;;9.57;7.13;;;;;;;;;;8334937;28;20028;-64
2022/12/02 21:57:33;;;;;;;10.13;7.28;;;;;;;;;;8332939;28;20057;-64
2022/12/02 22:01:41;;;;;;;20.20;7.38;;;;;;;;;;8327769;28;20041;-64
2022/12/02 22:05:41;;;;;;;12.38;7.75;;;;;;;;;;8330473;28;20797;-64
2022/12/02 22:09:41;;;;;;;24.08;7.50;;;;;;;;;;8335139;28;20028;-63
2022/12/02 22:13:41;;;;;;;10.30;6.38;;;;;;;;;;8329473;28;20025;-64
2022/12/02 22:17:42;;;;;;;8.70;6.65;;;;;;;;;;8334718;28;20058;-64
2022/12/02 22:21:42;;;;;;;11.87;6.70;;;;;;;;;;8339706;28;20036;-64
2022/12/02 22:25:42;;;;;;;9.13;6.63;;;;;;;;;;8343140;28;20275;-64
2022/12/02 22:29:42;;;;;;;13.35;6.97;;;;;;;;;;8341963;28;20290;-64
2022/12/02 22:33:43;;;;;;;10.40;6.43;;;;;;;;;;8343503;28;20876;-65
2022/12/02 22:37:43;;;;;;;35.90;7.60;;;;;;;;;;8343401;28;20554;-64
2022/12/02 22:41:43;;;;;;;72.47;8.10;;;;;;;;;;8342805;28;20029;-64
2022/12/02 22:45:43;;;;;;;54.80;8.40;;;;;;;;;;8343313;28;20036;-64
2022/12/02 22:49:44;;;;;;;23.27;6.97;;;;;;;;;;8342889;28;20776;-64
2022/12/02 22:53:44;;;;;;;25.13;6.50;;;;;;;;;;8342601;28;20563;-64
2022/12/02 22:57:44;;;;;;;60.03;7.87;;;;;;;;;;8339876;28;20029;-64
2022/12/02 23:01:45;;;;;;;35.00;7.13;;;;;;;;;;8340650;28;20461;-64
2022/12/02 23:05:45;;;;;;;150.32;10.02;;;;;;;;;;8340842;28;20033;-64
2022/12/02 23:09:45;;;;;;;47.83;7.28;;;;;;;;;;8341675;28;20028;-64
2022/12/02 23:13:45;;;;;;;38.30;7.32;;;;;;;;;;8341769;28;20079;-64
2022/12/02 23:17:46;;;;;;;9.50;6.38;;;;;;;;;;8338996;28;20190;-64
2022/12/02 23:21:47;;;;;;;7.78;5.70;;;;;;;;;;8339393;28;20029;-64
2022/12/02 23:25:47;;;;;;;7.47;5.63;;;;;;;;;;8339578;28;20036;-64
2022/12/02 23:29:47;;;;;;;8.07;5.97;;;;;;;;;;8337555;28;20029;-64
2022/12/02 23:33:47;;;;;;;8.65;5.93;;;;;;;;;;8337440;28;20280;-64
2022/12/02 23:37:48;;;;;;;8.00;5.90;;;;;;;;;;8340573;28;20032;-64